»·PEaware :: N8350R KSMX-KSBA

N8350R :: KSMX-KSBA

FLIGHT INFORMATION

Flight Status: Arrived
Operator: Privately registered:
United States
More flights under this callsign
Pilot: David L. (16466)
Aircraft: CESSNA 172 SKYHAWK
(C172)
More flights by this aircraft type
Origin: KSMX Santa Maria Pub/Capt Hancock
United States
Destination: KSBA Santa Barbara Mun
United States
More flights between these airports :: More routes between these airports
Route: BUELT4 RZS
File this flight plan on PilotEdge
Remarks:
Altitude:
(Current/Filed)
7,000ft
Speed:
(Current/Filed)
110kts
Departed: 27-Sep-17 04:50 PM
Arrived: 27-Sep-17 05:39 PM
Distance/Time
Traveled:
42nm/0:49
Distance/Time
To Go:
Arrived

Flight Plot

Page will automatically refresh every two minutes.

Flight plan parsing failed; only flown route is shown


Map Options




Map Legend


Flown Route
Filed Route
Departure Airport
Arrival Airport
Navaid (VOR, NDB)
Fix

Horizontal Profiles

Position Reports

Time Latitude Longitude Heading Altitude Ground
Speed
27-Sep-17 16:38 34.892780 -120.455701 179 264ft 0kts
27-Sep-17 16:39 34.892780 -120.455701 179 264ft 0kts
27-Sep-17 16:40 34.892780 -120.455701 179 264ft 0kts
27-Sep-17 16:41 34.892780 -120.455701 179 264ft 0kts
27-Sep-17 16:42 34.892780 -120.455701 179 264ft 0kts
27-Sep-17 16:43 34.892780 -120.455701 179 264ft 0kts
27-Sep-17 16:44 34.892780 -120.455701 179 264ft 0kts
27-Sep-17 16:45 34.892780 -120.455701 179 264ft 0kts
27-Sep-17 16:46 34.892768 -120.455699 170 264ft 2kts
27-Sep-17 16:47 34.893144 -120.454253 79 264ft 0kts
27-Sep-17 16:48 34.891732 -120.453284 92 264ft 8kts
27-Sep-17 16:49 34.891722 -120.448386 90 264ft 14kts
27-Sep-17 16:50 34.892355 -120.446349 48 264ft 0kts
27-Sep-17 16:51 34.892355 -120.446348 48 264ft 0kts
27-Sep-17 16:52 34.892356 -120.446347 48 264ft 0kts
27-Sep-17 16:53 34.892360 -120.446342 48 264ft 1kts
27-Sep-17 16:54 34.899151 -120.453444 315 426ft 78kts
27-Sep-17 16:55 34.917157 -120.457271 67 1265ft 83kts
27-Sep-17 16:56 34.901656 -120.449411 201 2066ft 85kts
27-Sep-17 16:57 34.879785 -120.449167 143 2822ft 86kts
27-Sep-17 16:58 34.857533 -120.437924 162 3534ft 87kts
27-Sep-17 16:59 34.835249 -120.425985 150 4213ft 88kts
27-Sep-17 17:00 34.814625 -120.409643 144 4879ft 88kts
27-Sep-17 17:01 34.795127 -120.392016 145 5529ft 86kts
27-Sep-17 17:02 34.776144 -120.375104 151 6138ft 84kts
27-Sep-17 17:03 34.756266 -120.358601 157 6669ft 89kts
27-Sep-17 17:04 34.734333 -120.341871 159 7040ft 104kts
27-Sep-17 17:05 34.706994 -120.321983 156 6995ft 116kts
27-Sep-17 17:06 34.679886 -120.299569 153 7002ft 117kts
27-Sep-17 17:07 34.656843 -120.272944 107 7021ft 122kts
27-Sep-17 17:08 34.645650 -120.233305 114 7003ft 125kts
27-Sep-17 17:09 34.634375 -120.192883 110 7000ft 127kts
27-Sep-17 17:10 34.624038 -120.151888 110 7000ft 127kts
27-Sep-17 17:11 34.612601 -120.111346 113 6997ft 125kts
27-Sep-17 17:12 34.600244 -120.072198 114 7001ft 124kts
27-Sep-17 17:13 34.587719 -120.032492 113 6997ft 126kts
27-Sep-17 17:14 34.575944 -119.992732 112 6999ft 124kts
27-Sep-17 17:15 34.566216 -119.959650 113 7004ft 126kts
27-Sep-17 17:16 34.552222 -119.913107 113 6998ft 124kts
27-Sep-17 17:17 34.542334 -119.880272 113 6999ft 124kts
27-Sep-17 17:18 34.530763 -119.841677 113 7009ft 123kts
27-Sep-17 17:19 34.517381 -119.797101 113 6987ft 112kts
27-Sep-17 17:20 34.507012 -119.769424 160 6995ft 99kts
27-Sep-17 17:21 34.482685 -119.752837 171 7003ft 99kts
27-Sep-17 17:22 34.455460 -119.745248 171 6789ft 112kts
27-Sep-17 17:23 34.423876 -119.731553 165 6097ft 122kts
27-Sep-17 17:24 34.394869 -119.717842 164 5986ft 103kts
27-Sep-17 17:25 34.375628 -119.693369 111 5662ft 109kts
27-Sep-17 17:26 34.366852 -119.667820 110 5230ft 103kts
27-Sep-17 17:28 34.352175 -119.625945 110 4486ft 98kts
27-Sep-17 17:29 34.341153 -119.596550 131 3950ft 98kts
27-Sep-17 17:30 34.318840 -119.583197 156 3984ft 85kts
27-Sep-17 17:31 34.306620 -119.563155 58 3904ft 79kts
27-Sep-17 17:32 34.327739 -119.567096 325 3420ft 86kts
27-Sep-17 17:33 34.338441 -119.593228 290 2906ft 85kts
27-Sep-17 17:34 34.346655 -119.620315 289 2416ft 83kts
27-Sep-17 17:35 34.355522 -119.646929 294 2115ft 83kts
27-Sep-17 17:36 34.364920 -119.672577 296 2118ft 82kts
27-Sep-17 17:37 34.375693 -119.697247 298 2139ft 83kts
27-Sep-17 17:38 34.386708 -119.722010 298 2145ft 84kts
27-Sep-17 17:39 34.397879 -119.747074 298 1797ft 80kts
27-Sep-17 17:40 34.408509 -119.770929 298 1167ft 80kts
27-Sep-17 17:41 34.417074 -119.794282 292 925ft 70kts
27-Sep-17 17:42 34.424238 -119.816019 292 664ft 66kts
27-Sep-17 17:43 34.427917 -119.835234 272 13ft 18kts
27-Sep-17 17:44 34.427299 -119.837702 163 13ft 0kts
27-Sep-17 17:45 34.427298 -119.837702 163 13ft 0kts
27-Sep-17 17:46 34.425704 -119.837143 163 13ft 8kts
27-Sep-17 17:47 34.424577 -119.835924 76 13ft 0kts

Navigation Log

Ident Type
Flight plan parsing failed, navigation log unavailable